Terminal Aerodrome Forecast
Issued by NWS

Home | Current Version | Previous Version | Text Only | Print | Product List | Glossary On
Versions: 1 2 3 4 5 6 7 8 9 10 11 12 13 14 15 16 17 18 19 20 21 22 23
000
FTUS43 KGRR 060100 AAA
TAFAZO
TAF AMD
KAZO 060143Z 0602/0624 10006KT 6SM BR OVC006
     FM060700 11006KT 2SM BR OVC005
     FM061400 18006KT 5SM BR BKN012
     FM061800 21007KT P6SM VCTS BKN035CB=

USA.gov is the U.S. government's official web portal to all federal, state and local government web resources and services.